Time;durP1;ratioP1;P1;durP2;ratioP2;P2;SDS_P1;SDS_P2;PMS_P1;PMS_P2;Temp;Humidity;BMP_temperature;BMP_pressure;BME280_temperature;BME280_humidity;BME280_pressure;Samples;Min_cycle;Max_cycle;Signal;HPM_P1;HPM_P2
2023/03/10 00:00:47;;;;;;;;;1.33;0.00;;;;;21.50;44.03;98670.31;5036707;28;45474;-71
2023/03/10 00:03:12;;;;;;;;;2.33;0.33;;;;;21.50;43.84;98662.38;5036415;28;46997;-71
2023/03/10 00:05:38;;;;;;;;;0.00;0.00;;;;;21.49;43.97;98669.50;5036602;28;45319;-71
2023/03/10 00:08:03;;;;;;;;;1.67;0.00;;;;;21.49;43.95;98666.06;5036439;28;45256;-71
2023/03/10 00:10:29;;;;;;;;;0.00;0.00;;;;;21.44;43.68;98655.38;5036588;28;45526;-71
2023/03/10 00:12:54;;;;;;;;;1.00;1.00;;;;;21.47;43.90;98660.19;5036494;28;45291;-70
2023/03/10 00:15:20;;;;;;;;;0.67;0.33;;;;;21.45;43.98;98665.72;5035512;28;45366;-71
2023/03/10 00:17:48;;;;;;;;;1.67;0.00;;;;;21.46;43.55;98661.22;5036828;28;45702;-71
2023/03/10 00:20:15;;;;;;;;;1.00;1.00;;;;;21.45;43.63;98655.13;5036471;28;45303;-71
2023/03/10 00:22:40;;;;;;;;;1.00;0.00;;;;;21.38;43.14;98641.22;5035803;28;46167;-71
2023/03/10 00:25:08;;;;;;;;;1.00;0.00;;;;;21.46;43.55;98655.94;5018263;28;45419;-71
2023/03/10 00:27:33;;;;;;;;;0.33;0.00;;;;;21.46;43.45;98650.66;5036576;28;45369;-72
2023/03/10 00:29:58;;;;;;;;;1.67;1.00;;;;;21.47;43.38;98652.25;5036121;28;45407;-71
2023/03/10 00:32:24;;;;;;;;;0.33;0.33;;;;;21.46;43.03;98648.81;5035838;28;47009;-71
2023/03/10 00:34:49;;;;;;;;;1.00;0.33;;;;;21.46;43.03;98643.53;5035641;28;45307;-70
2023/03/10 00:37:15;;;;;;;;;3.00;2.00;;;;;21.46;43.43;98638.25;5035612;28;45382;-72
2023/03/10 00:39:40;;;;;;;;;2.33;1.00;;;;;21.46;43.17;98629.50;5036204;28;45397;-72
2023/03/10 00:42:06;;;;;;;;;5.00;0.00;;;;;21.47;42.95;98633.72;5035834;28;46124;-72
2023/03/10 00:44:32;;;;;;;;;0.67;0.67;;;;;21.46;42.99;98635.59;5035921;28;45397;-72
2023/03/10 00:46:58;;;;;;;;;0.00;0.00;;;;;21.45;43.13;98636.63;5036215;28;45363;-72
2023/03/10 00:49:23;;;;;;;;;0.33;0.33;;;;;21.37;43.18;98619.25;5036097;28;45374;-71
2023/03/10 00:51:48;;;;;;;;;4.33;0.00;;;;;21.42;42.93;98609.84;5035430;28;46179;-72
2023/03/10 00:54:13;;;;;;;;;2.00;1.00;;;;;21.44;43.23;98623.63;5035347;28;45352;-72
2023/03/10 00:56:39;;;;;;;;;1.33;1.33;;;;;;;;5018178;28;45478;-71
2023/03/10 00:59:05;;;;;;;;;0.00;0.00;;;;;21.44;43.08;98621.78;5036042;28;45307;-72
2023/03/10 01:01:38;;;;;;;;;2.00;0.67;;;;;21.45;43.13;98619.94;5035215;28;45429;-72
2023/03/10 01:04:10;;;;;;;;;2.33;1.00;;;;;21.43;42.61;98625.47;5035419;28;45391;-72
2023/03/10 01:06:35;;;;;;;;;1.00;1.00;;;;;21.43;42.69;98633.41;5035382;28;45404;-71
2023/03/10 01:09:02;;;;;;;;;1.33;1.33;;;;;21.40;42.71;98624.09;5017778;28;45419;-72
2023/03/10 01:11:29;;;;;;;;;4.33;1.33;;;;;21.42;42.77;98629.13;5035132;28;46575;-72
2023/03/10 01:13:57;;;;;;;;;1.00;1.00;;;;;21.42;43.06;98626.47;5035510;28;45413;-71
2023/03/10 01:16:23;;;;;;;;;1.33;1.00;;;;;21.42;43.02;98623.84;5035667;28;45237;-72
2023/03/10 01:18:49;;;;;;;;;0.67;0.00;;;;;21.38;42.71;98620.06;5035499;28;45542;-71
2023/03/10 01:21:23;;;;;;;;;0.33;0.00;;;;;21.40;42.57;98629.38;5035089;28;45325;-71
2023/03/10 01:23:49;;;;;;;;;3.33;0.00;;;;;21.39;42.81;98625.09;5035234;28;45406;-72
2023/03/10 01:26:15;;;;;;;;;2.00;1.00;;;;;21.40;42.60;98629.38;5035711;28;45379;-71
2023/03/10 01:28:40;;;;;;;;;1.33;0.67;;;;;21.39;42.37;98624.31;5035589;28;45348;-72
2023/03/10 01:31:06;;;;;;;;;2.00;0.00;;;;;21.33;42.60;98609.34;5035159;28;45411;-72
2023/03/10 01:33:38;;;;;;;;;0.00;0.00;;;;;21.39;42.53;98613.75;5035110;28;45461;-72
2023/03/10 01:36:08;;;;;;;;;1.00;1.00;;;;;21.39;42.82;98606.59;5035239;28;45446;-72
2023/03/10 01:38:34;;;;;;;;;4.00;1.67;;;;;21.39;42.71;98603.94;5035277;28;45449;-72
2023/03/10 01:41:00;;;;;;;;;4.00;2.00;;;;;21.40;42.49;98604.75;5035106;28;45429;-72
2023/03/10 01:43:34;;;;;;;;;1.33;1.00;;;;;21.41;42.72;98609.03;5035071;28;45284;-71
2023/03/10 01:45:59;;;;;;;;;2.00;2.00;;;;;21.39;42.78;98598.66;5035779;28;45336;-71
2023/03/10 01:48:24;;;;;;;;;3.00;1.00;;;;;21.39;42.78;98598.66;5038564;28;45509;-71
2023/03/10 01:50:54;;;;;;;;;1.00;0.67;;;;;21.40;42.63;98594.16;5038572;28;47066;-71
2023/03/10 01:53:21;;;;;;;;;2.50;1.75;;;;;21.40;42.98;98599.47;5038575;28;45461;-71
2023/03/10 01:55:51;;;;;;;;;2.67;1.67;;;;;21.40;42.42;98596.81;5038766;28;45379;-71
2023/03/10 01:58:19;;;;;;;;;1.67;1.00;;;;;21.40;42.41;98588.88;5037882;28;45276;-72
2023/03/10 02:00:44;;;;;;;;;1.00;1.00;;;;;21.40;42.55;98580.94;5038248;28;47567;-71
2023/03/10 02:03:18;;;;;;;;;7.25;2.25;;;;;21.40;42.47;98581.75;5037951;28;45508;-71
2023/03/10 02:05:54;;;;;;;;;4.33;1.00;;;;;21.42;42.75;98575.44;5038458;28;45304;-71
2023/03/10 02:08:22;;;;;;;;;4.00;1.00;;;;;21.42;42.25;98580.72;5038497;28;45330;-71
2023/03/10 02:10:49;;;;;;;;;1.75;1.75;;;;;21.39;42.71;98561.63;5038325;28;46282;-71
2023/03/10 02:13:15;;;;;;;;;1.00;1.00;;;;;21.39;42.31;98558.97;5038129;28;45350;-71
2023/03/10 02:15:41;;;;;;;;;1.00;1.00;;;;;21.39;42.79;98566.13;5038444;28;45446;-72
2023/03/10 02:18:09;;;;;;;;;1.00;1.00;;;;;;;;5037865;28;45335;-72
2023/03/10 02:20:52;;;;;;;;;1.00;1.00;;;;;21.40;42.26;98560.59;5038029;28;46166;-71
2023/03/10 02:23:37;;;;;;;;;1.00;1.00;;;;;;;;5037860;28;45474;-72
2023/03/10 02:26:13;;;;;;;;;1.00;1.00;;;;;21.40;42.51;98554.50;5038070;28;45362;-71
2023/03/10 02:28:38;;;;;;;;;1.00;1.00;;;;;21.35;42.50;98547.25;5038195;28;45529;-71
2023/03/10 02:31:05;;;;;;;;;1.00;1.00;;;;;21.37;42.23;98553.13;5037669;28;47312;-72
2023/03/10 02:33:32;;;;;;;;;2.00;0.67;;;;;21.36;42.42;98553.34;5037748;28;45471;-71
2023/03/10 02:36:11;;;;;;;;;0.00;0.00;;;;;21.39;42.48;98555.56;5037472;28;45395;-71
2023/03/10 02:38:37;;;;;;;;;2.00;1.00;;;;;21.34;42.69;98553.56;5036973;28;45304;-72
2023/03/10 02:41:18;;;;;;;;;0.33;0.33;;;;;21.38;42.03;98553.94;5037759;28;45358;-71
2023/03/10 02:43:43;;;;;;;;;0.33;0.33;;;;;21.31;42.20;98537.38;5020785;28;45463;-71
2023/03/10 02:46:09;;;;;;;;;1.00;1.00;;;;;21.37;42.49;98544.38;5037658;28;45373;-71
2023/03/10 02:48:37;;;;;;;;;2.00;1.00;;;;;21.36;42.02;98556.81;5037886;28;45471;-71
2023/03/10 02:51:08;;;;;;;;;1.67;1.67;;;;;21.36;42.08;98535.66;5037698;28;45402;-72
2023/03/10 02:53:33;;;;;;;;;2.67;1.00;;;;;21.34;42.37;98534.28;5037712;28;45307;-71
2023/03/10 02:55:59;;;;;;;;;1.00;1.00;;;;;21.37;42.14;98541.72;5037704;28;45335;-72
2023/03/10 02:58:26;;;;;;;;;0.33;0.33;;;;;21.37;42.49;98536.44;5037421;28;45519;-72
2023/03/10 03:00:52;;;;;;;;;1.67;1.00;;;;;21.37;42.00;98539.09;5037356;28;46159;-71
2023/03/10 03:03:19;;;;;;;;;2.33;0.00;;;;;21.38;42.21;98551.28;5037309;28;45391;-71
2023/03/10 03:05:44;;;;;;;;;2.00;1.00;;;;;21.37;42.41;98552.31;5037728;28;45347;-72
2023/03/10 03:08:10;;;;;;;;;1.67;0.00;;;;;21.38;42.32;98549.44;5037637;28;45356;-71
2023/03/10 03:10:37;;;;;;;;;2.33;1.33;;;;;21.37;42.37;98533.78;5037334;28;46090;-71
2023/03/10 03:13:03;;;;;;;;;0.33;0.33;;;;;21.36;42.12;98537.50;5037484;28;45401;-72
2023/03/10 03:15:29;;;;;;;;;3.00;1.67;;;;;21.24;42.43;98517.13;5037091;28;45362;-71
2023/03/10 03:17:57;;;;;;;;;0.67;0.33;;;;;21.37;41.98;98536.44;5037347;28;45317;-71
2023/03/10 03:20:24;;;;;;;;;3.00;1.00;;;;;21.37;42.06;98529.31;5037261;28;45252;-71
2023/03/10 03:22:49;;;;;;;;;1.67;1.00;;;;;21.37;41.74;98533.78;5037065;28;45351;-71
2023/03/10 03:25:17;;;;;;;;;2.00;0.00;;;;;21.37;42.35;98539.09;5037256;28;45294;-71
2023/03/10 03:27:43;;;;;;;;;1.00;1.00;;;;;21.36;42.04;98530.38;5037444;28;45435;-72
2023/03/10 03:30:14;;;;;;;;;4.00;1.00;;;;;21.36;41.93;98535.66;5036750;28;45517;-71
2023/03/10 03:32:40;;;;;;;;;1.33;0.00;;;;;21.35;41.70;98523.44;5037165;28;45359;-71
2023/03/10 03:35:11;;;;;;;;;1.00;1.00;;;;;21.36;42.03;98538.31;5037061;28;45441;-71
2023/03/10 03:37:37;;;;;;;;;1.00;1.00;;;;;21.35;42.28;98541.97;5036896;28;45496;-71
2023/03/10 03:40:11;;;;;;;;;4.00;0.00;;;;;21.34;41.70;98537.69;5036811;28;46089;-71
2023/03/10 03:42:37;;;;;;;;;1.67;1.00;;;;;21.36;41.94;98540.13;5036898;28;45483;-71
2023/03/10 03:45:03;;;;;;;;;2.00;0.00;;;;;21.34;41.99;98531.63;5036574;28;45346;-71
2023/03/10 03:47:28;;;;;;;;;1.00;1.00;;;;;21.33;42.28;98528.19;5037022;28;45311;-71
2023/03/10 03:49:54;;;;;;;;;2.00;1.00;;;;;21.34;42.19;98534.28;5036590;28;47303;-71
2023/03/10 03:52:19;;;;;;;;;1.00;1.00;;;;;21.34;42.10;98531.63;5036960;28;45341;-71
2023/03/10 03:54:44;;;;;;;;;0.00;0.00;;;;;21.34;42.22;98535.06;5036887;28;45330;-71
2023/03/10 03:57:10;;;;;;;;;3.33;0.00;;;;;21.33;42.11;98540.59;5036952;28;45358;-72
2023/03/10 03:59:35;;;;;;;;;1.00;0.00;;;;;21.33;41.85;98536.13;5036474;28;45387;-71
2023/03/10 04:02:00;;;;;;;;;2.00;0.00;;;;;21.24;42.11;98519.78;5036821;28;45307;-72
2023/03/10 04:04:26;;;;;;;;;1.00;1.00;;;;;21.32;41.57;98531.84;5036838;28;45411;-71
2023/03/10 04:06:51;;;;;;;;;0.33;0.33;;;;;21.32;41.90;98528.38;5036861;28;45304;-71
2023/03/10 04:09:17;;;;;;;;;2.00;0.67;;;;;21.32;41.90;98528.38;5035573;28;46317;-71
2023/03/10 04:11:42;;;;;;;;;1.00;0.00;;;;;21.32;41.99;98525.75;5036520;28;45314;-71
2023/03/10 04:14:08;;;;;;;;;0.00;0.00;;;;;21.31;41.74;98532.09;5036378;28;45426;-71
2023/03/10 04:16:33;;;;;;;;;0.67;0.67;;;;;21.31;41.70;98530.25;5036607;28;45428;-71
2023/03/10 04:19:00;;;;;;;;;0.00;0.00;;;;;21.31;41.88;98540.84;5036290;28;46273;-72
2023/03/10 04:21:25;;;;;;;;;0.33;0.00;;;;;21.31;41.78;98545.31;5036313;28;45280;-71
2023/03/10 04:23:51;;;;;;;;;0.00;0.00;;;;;21.31;41.96;98542.66;5036115;28;45362;-72
2023/03/10 04:26:16;;;;;;;;;1.00;1.00;;;;;21.28;41.91;98536.00;5036564;28;45337;-72
2023/03/10 04:28:41;;;;;;;;;2.00;0.00;;;;;21.27;41.93;98523.81;5036093;28;46222;-72
2023/03/10 04:31:14;;;;;;;;;2.33;0.00;;;;;21.32;41.81;98538.97;5036053;28;45406;-72
2023/03/10 04:33:40;;;;;;;;;0.00;0.00;;;;;21.32;41.69;98541.63;5036330;28;45477;-71
2023/03/10 04:36:06;;;;;;;;;1.00;0.00;;;;;21.30;41.65;98536.56;5036058;28;45449;-69
2023/03/10 04:38:32;;;;;;;;;0.67;0.67;;;;;21.32;41.95;98546.91;5035752;28;46456;-70
2023/03/10 04:40:57;;;;;;;;;0.00;0.00;;;;;21.33;41.97;98548.53;5018000;28;45379;-72
2023/03/10 04:43:23;;;;;;;;;0.00;0.00;;;;;21.28;42.00;98534.16;5035624;28;45331;-72
2023/03/10 04:45:48;;;;;;;;;0.33;0.00;;;;;21.31;41.65;98535.53;5036164;28;45403;-72
2023/03/10 04:48:13;;;;;;;;;0.00;0.00;;;;;21.33;41.93;98540.59;5035980;28;46016;-72
2023/03/10 04:50:39;;;;;;;;;2.00;0.00;;;;;21.28;41.94;98547.38;5035838;28;45311;-72
2023/03/10 04:53:04;;;;;;;;;0.00;0.00;;;;;21.32;41.68;98549.56;5035537;28;45356;-71
2023/03/10 04:55:30;;;;;;;;;0.00;0.00;;;;;21.31;41.63;98553.25;5035872;28;45382;-71
2023/03/10 04:57:55;;;;;;;;;0.00;0.00;;;;;21.30;41.81;98547.16;5035537;28;46001;-71
2023/03/10 05:00:20;;;;;;;;;0.00;0.00;;;;;21.23;41.76;98547.28;5035843;28;45315;-71
2023/03/10 05:02:46;;;;;;;;;0.33;0.33;;;;;21.30;41.68;98565.66;5035862;28;45454;-71
2023/03/10 05:05:11;;;;;;;;;0.00;0.00;;;;;21.29;41.61;98566.69;5035680;28;45413;-71
2023/03/10 05:07:37;;;;;;;;;0.00;0.00;;;;;21.26;41.79;98565.31;5017672;28;48197;-71
2023/03/10 05:10:03;;;;;;;;;0.00;0.00;;;;;21.29;41.55;98570.13;5034948;28;45339;-72
2023/03/10 05:12:29;;;;;;;;;0.00;0.00;;;;;21.29;41.52;98572.78;5035546;28;45236;-71
2023/03/10 05:14:54;;;;;;;;;0.67;0.00;;;;;21.27;41.53;98566.94;5035647;28;45350;-72
2023/03/10 05:17:19;;;;;;;;;0.00;0.00;;;;;21.29;41.50;98566.69;5035518;28;45995;-71
2023/03/10 05:19:45;;;;;;;;;0.00;0.00;;;;;21.28;41.48;98571.19;5035287;28;45393;-70
2023/03/10 05:22:11;;;;;;;;;1.00;1.00;;;;;21.26;41.71;98570.59;5035520;28;45223;-71
2023/03/10 05:24:36;;;;;;;;;0.33;0.33;;;;;21.28;41.63;98576.50;5035511;28;45213;-71
2023/03/10 05:27:02;;;;;;;;;1.00;0.00;;;;;21.25;41.66;98582.22;5017265;28;46083;-71
2023/03/10 05:29:28;;;;;;;;;0.00;0.00;;;;;21.28;42.01;98575.69;5035473;28;45403;-71
2023/03/10 05:31:53;;;;;;;;;1.00;0.00;;;;;21.27;41.71;98580.16;5035372;28;45389;-71
2023/03/10 05:34:19;;;;;;;;;2.00;1.00;;;;;21.27;41.69;98585.44;5035441;28;45322;-71
2023/03/10 05:36:44;;;;;;;;;0.33;0.33;;;;;21.27;41.88;98588.09;5035126;28;45612;-72
2023/03/10 05:39:10;;;;;;;;;1.67;0.00;;;;;21.27;41.97;98587.28;5035368;28;45339;-71
2023/03/10 05:41:36;;;;;;;;;0.33;0.33;;;;;21.27;41.99;98589.91;5035135;28;45411;-71
2023/03/10 05:44:02;;;;;;;;;0.00;0.00;;;;;21.26;42.07;98599.69;5035236;28;45376;-71
2023/03/10 05:46:28;;;;;;;;;0.33;0.00;;;;;21.26;41.61;98601.56;5035032;28;47139;-71
2023/03/10 05:48:55;;;;;;;;;2.00;1.00;;;;;21.24;41.65;98607.06;5035332;28;45369;-72
2023/03/10 05:51:20;;;;;;;;;0.00;0.00;;;;;21.27;41.46;98606.59;5035258;28;45356;-71
2023/03/10 05:53:46;;;;;;;;;1.00;0.00;;;;;21.27;41.53;98608.44;5035193;28;45412;-72
2023/03/10 05:56:14;;;;;;;;;1.00;0.33;;;;;21.27;41.56;98606.59;5034674;28;46129;-71
2023/03/10 05:58:40;;;;;;;;;0.67;0.00;;;;;21.26;41.50;98612.91;5035191;28;45414;-71
2023/03/10 06:01:06;;;;;;;;;0.00;0.00;;;;;21.27;41.47;98611.06;5034971;28;45418;-71
2023/03/10 06:03:32;;;;;;;;;0.00;0.00;;;;;21.27;41.96;98625.13;5035127;28;45404;-71
2023/03/10 06:05:58;;;;;;;;;0.00;0.00;;;;;21.28;41.49;98631.22;5034839;28;47178;-71
2023/03/10 06:08:26;;;;;;;;;0.00;0.00;;;;;21.20;41.49;98635.00;5034728;28;45452;-71
2023/03/10 06:10:52;;;;;;;;;0.00;0.00;;;;;21.28;41.45;98658.47;5034739;28;45301;-71
2023/03/10 06:13:19;;;;;;;;;0.67;0.67;;;;;21.28;41.61;98663.75;5034845;28;45526;-71
2023/03/10 06:15:52;;;;;;;;;0.00;0.00;;;;;21.29;41.78;98669.84;5034742;28;47257;-71
2023/03/10 06:18:18;;;;;;;;;0.33;0.00;;;;;21.28;41.42;98702.63;5034961;28;45439;-71
2023/03/10 06:20:44;;;;;;;;;0.00;0.00;;;;;21.26;41.37;98686.97;5034855;28;45417;-71
2023/03/10 06:23:10;;;;;;;;;0.00;0.00;;;;;21.28;41.39;98707.91;5034477;28;45478;-71
2023/03/10 06:25:36;;;;;;;;;0.00;0.00;;;;;21.26;41.30;98694.91;5034361;28;46054;-71
2023/03/10 06:28:01;;;;;;;;;0.00;0.00;;;;;21.25;41.78;98709.19;5034833;28;45472;-71
2023/03/10 06:30:26;;;;;;;;;1.00;0.00;;;;;21.25;41.41;98719.75;5016634;28;45608;-71
2023/03/10 06:32:52;;;;;;;;;0.00;0.00;;;;;21.27;41.73;98738.84;5036563;28;45534;-72
2023/03/10 06:35:17;;;;;;;;;0.00;0.00;;;;;21.23;41.73;98737.69;5038109;28;46017;-72
2023/03/10 06:37:43;;;;;;;;;1.00;0.00;;;;;21.26;41.54;98755.72;5038009;28;45347;-72
2023/03/10 06:40:11;;;;;;;;;0.00;0.00;;;;;21.16;41.79;98743.06;5019889;28;45582;-72
2023/03/10 06:42:41;;;;;;;;;0.00;0.00;;;;;21.26;41.49;98762.88;5037546;28;45276;-72
2023/03/10 06:45:08;;;;;;;;;0.00;0.00;;;;;21.21;41.81;98754.81;5020432;28;46078;-73
2023/03/10 06:47:33;;;;;;;;;0.00;0.00;;;;;21.27;42.04;98789.09;5037810;28;45384;-75
2023/03/10 06:50:00;;;;;;;;;0.00;0.00;;;;;21.27;42.09;98799.69;5024642;28;45609;-75
2023/03/10 06:52:25;;;;;;;;;0.00;0.00;;;;;21.28;42.00;98806.59;5028929;28;45409;-76
2023/03/10 06:54:50;;;;;;;;;0.00;0.00;;;;;21.28;42.22;98811.88;5024722;28;46384;-75
2023/03/10 06:57:16;;;;;;;;;0.00;0.00;;;;;21.28;41.94;98821.66;5017564;28;45301;-74
2023/03/10 06:59:41;;;;;;;;;0.67;0.00;;;;;21.26;41.92;98842.22;5017999;28;45352;-75
2023/03/10 07:02:11;;;;;;;;;0.00;0.00;;;;;21.25;42.29;98827.38;5019772;28;45976;-73
2023/03/10 07:04:36;;;;;;;;;0.00;0.00;;;;;21.27;41.99;98855.22;5032244;28;46918;-73
2023/03/10 07:07:01;;;;;;;;;0.00;0.00;;;;;21.28;42.24;98863.97;5036240;28;45323;-73
2023/03/10 07:09:26;;;;;;;;;0.00;0.00;;;;;21.26;41.99;98869.47;5037025;28;45497;-73
2023/03/10 07:11:52;;;;;;;;;0.00;0.00;;;;;21.28;41.93;98882.47;5029771;28;45593;-73
2023/03/10 07:14:17;;;;;;;;;1.00;0.00;;;;;21.27;42.24;98881.66;5029337;28;46464;-73
2023/03/10 07:16:45;;;;;;;;;1.00;0.00;;;;;21.27;42.28;98878.22;5026274;28;45642;-73
2023/03/10 07:19:10;;;;;;;;;0.00;0.00;;;;;21.28;42.00;98879.84;5026001;28;45720;-73
2023/03/10 07:21:35;;;;;;;;;0.00;0.00;;;;;21.29;41.85;98873.50;5026064;28;45551;-73
2023/03/10 07:24:01;;;;;;;;;0.00;0.00;;;;;21.29;42.16;98937.78;5025520;28;45577;-73
2023/03/10 07:26:26;;;;;;;;;0.00;0.00;;;;;21.29;41.84;98939.63;5024065;28;45630;-73
2023/03/10 07:28:53;;;;;;;;;2.00;0.00;;;;;21.27;42.04;98937.22;5024231;28;45512;-72
2023/03/10 07:31:18;;;;;;;;;0.00;0.00;;;;;21.29;41.87;98948.38;5023927;28;45383;-73
2023/03/10 07:33:43;;;;;;;;;0.00;0.00;;;;;21.30;41.93;98957.13;5023933;28;46333;-73
2023/03/10 07:36:14;;;;;;;;;0.33;0.00;;;;;21.30;41.97;98973.00;5023742;28;45487;-72
2023/03/10 07:38:39;;;;;;;;;0.00;0.00;;;;;21.30;41.93;98970.34;5023813;28;45640;-74
2023/03/10 07:41:10;;;;;;;;;2.00;0.00;;;;;21.28;42.04;98997.03;5033497;28;45696;-73
2023/03/10 07:43:36;;;;;;;;;1.00;0.00;;;;;21.30;42.15;98999.44;5035482;28;47227;-73
2023/03/10 07:46:07;;;;;;;;;1.00;0.00;;;;;21.28;42.15;98999.69;5036459;28;45452;-73
2023/03/10 07:48:32;;;;;;;;;3.00;0.00;;;;;21.27;42.11;99005.97;5036710;28;45343;-73
2023/03/10 07:50:58;;;;;;;;;0.00;0.00;;;;;21.24;41.75;99005.59;5036455;28;45375;-72
2023/03/10 07:53:24;;;;;;;;;0.00;0.00;;;;;21.24;42.01;99029.41;5036410;28;46216;-73
2023/03/10 07:55:50;;;;;;;;;0.00;0.00;;;;;21.26;42.35;99033.44;5036546;28;45467;-72
2023/03/10 07:58:15;;;;;;;;;0.00;0.00;;;;;21.28;42.04;99039.34;5036667;28;45245;-73
2023/03/10 08:00:40;;;;;;;;;0.00;0.00;;;;;21.19;42.16;99038.00;5036355;28;45380;-73
2023/03/10 08:03:06;;;;;;;;;0.00;0.00;;;;;21.27;41.94;99042.19;5036114;28;45930;-73
2023/03/10 08:05:31;;;;;;;;;0.00;0.00;;;;;21.25;42.31;99057.47;5035741;28;45456;-73
2023/03/10 08:07:57;;;;;;;;;0.00;0.00;;;;;21.26;41.86;99074.97;5036277;28;45396;-73
2023/03/10 08:10:23;;;;;;;;;1.33;0.00;;;;;21.25;41.67;99092.69;5036414;28;45438;-73
2023/03/10 08:12:48;;;;;;;;;0.00;0.00;;;;;21.20;41.93;99081.13;5036404;28;46239;-73
2023/03/10 08:15:14;;;;;;;;;0.00;0.00;;;;;21.25;41.79;99084.75;5036136;28;45354;-72
2023/03/10 08:17:39;;;;;;;;;0.00;0.00;;;;;21.24;41.84;99104.28;5018600;28;45324;-73
2023/03/10 08:20:05;;;;;;;;;0.00;0.00;;;;;21.24;42.26;99104.28;5036007;28;45450;-72
2023/03/10 08:22:31;;;;;;;;;0.00;0.00;;;;;21.24;42.24;99108.75;5036171;28;46967;-73
2023/03/10 08:24:58;;;;;;;;;0.00;0.00;;;;;21.23;42.22;99118.53;5036177;28;45452;-73
2023/03/10 08:27:24;;;;;;;;;0.00;0.00;;;;;21.24;41.82;99138.66;5018340;28;45443;-73
2023/03/10 08:29:50;;;;;;;;;0.00;0.00;;;;;21.22;42.06;99139.91;5036113;28;45389;-73
2023/03/10 08:32:15;;;;;;;;;0.00;0.00;;;;;21.18;41.88;99148.25;5035751;28;47112;-73
2023/03/10 08:34:41;;;;;;;;;0.00;0.00;;;;;21.22;42.30;99161.88;5035586;28;45429;-71
2023/03/10 08:37:07;;;;;;;;;0.00;0.00;;;;;21.13;42.19;99161.31;5035688;28;45347;-72
2023/03/10 08:39:33;;;;;;;;;0.00;0.00;;;;;21.22;41.94;99175.09;5035789;28;45382;-73
2023/03/10 08:41:58;;;;;;;;;2.00;0.00;;;;;21.23;41.93;99178.56;5035665;28;46305;-73
2023/03/10 08:44:24;;;;;;;;;0.00;0.00;;;;;21.21;41.75;99189.34;5035827;28;45423;-73
2023/03/10 08:46:49;;;;;;;;;0.00;0.00;;;;;21.23;41.83;99208.47;5035882;28;45364;-72
2023/03/10 08:49:16;;;;;;;;;0.00;0.00;;;;;21.20;41.98;99205.44;5035500;28;45381;-73
2023/03/10 08:51:42;;;;;;;;;0.00;0.00;;;;;21.23;41.74;99212.94;5035544;28;46336;-73
2023/03/10 08:54:11;;;;;;;;;0.67;0.00;;;;;21.25;42.02;99248.75;5017766;28;45556;-73
2023/03/10 08:56:36;;;;;;;;;0.00;0.00;;;;;21.25;41.69;99250.56;5035219;28;45299;-73
2023/03/10 08:59:02;;;;;;;;;0.00;0.00;;;;;21.23;41.55;99253.44;5035522;28;45451;-73
2023/03/10 09:01:33;;;;;;;;;0.00;0.00;;;;;21.23;41.38;99277.25;5035563;28;46388;-73
2023/03/10 09:04:00;;;;;;;;;1.00;0.00;;;;;21.25;41.97;99283.13;5034861;28;45403;-73
2023/03/10 09:06:26;;;;;;;;;0.00;0.00;;;;;21.26;41.54;99299.81;5035647;28;45358;-72
2023/03/10 09:08:52;;;;;;;;;0.00;0.00;;;;;21.26;41.77;99292.66;5035515;28;45283;-72
2023/03/10 09:11:21;;;;;;;;;0.00;0.00;;;;;21.25;41.78;99322.81;5035514;28;45387;-72
2023/03/10 09:13:47;;;;;;;;;0.00;0.00;;;;;21.19;41.51;99310.41;5035430;28;45343;-72
2023/03/10 09:16:13;;;;;;;;;0.67;0.00;;;;;21.24;41.53;99342.34;5035584;28;45338;-72
2023/03/10 09:18:39;;;;;;;;;0.00;0.00;;;;;21.24;41.87;99330.94;5035275;28;45223;-73
2023/03/10 09:21:04;;;;;;;;;0.00;0.00;;;;;21.24;41.64;99352.09;5034699;28;46314;-72
2023/03/10 09:23:30;;;;;;;;;0.00;0.00;;;;;21.24;41.41;99366.13;5035114;28;45594;-73
2023/03/10 09:25:55;;;;;;;;;0.00;0.00;;;;;21.24;41.44;99365.31;5017603;28;45304;-73
2023/03/10 09:28:21;;;;;;;;;1.33;0.00;;;;;21.23;41.57;99367.19;5035545;28;45300;-72
2023/03/10 09:30:47;;;;;;;;;0.00;0.00;;;;;21.23;41.56;99372.47;5035115;28;45341;-73
2023/03/10 09:33:19;;;;;;;;;0.00;0.00;;;;;21.23;41.89;99384.88;5034268;28;45449;-73
2023/03/10 09:35:46;;;;;;;;;1.00;1.00;;;;;21.14;41.47;99371.06;5034991;28;45399;-73
2023/03/10 09:38:12;;;;;;;;;0.00;0.00;;;;;21.23;41.60;99390.16;5035138;28;45462;-72
2023/03/10 09:40:39;;;;;;;;;0.00;0.00;;;;;21.23;41.90;99387.53;5035050;28;45330;-73
2023/03/10 09:43:06;;;;;;;;;0.00;0.00;;;;;21.22;41.84;99388.53;5034717;28;45296;-72
2023/03/10 09:45:59;;;;;;;;;0.00;0.00;;;;;21.22;41.52;99423.72;5035097;28;45341;-72
2023/03/10 09:48:43;;;;;;;;;0.00;0.00;;;;;21.21;40.98;99435.31;5034847;28;45433;-72
2023/03/10 09:51:22;;;;;;;;;0.00;0.00;;;;;21.19;41.33;99442.66;5033944;28;45449;-73
2023/03/10 09:54:02;;;;;;;;;0.00;0.00;;;;;21.19;41.61;99440.03;5034707;28;45304;-73
2023/03/10 09:56:31;;;;;;;;;0.00;0.00;;;;;21.20;41.37;99460.16;5034894;28;45333;-73
2023/03/10 09:59:20;;;;;;;;;1.00;0.00;;;;;21.19;41.62;99482.34;5034951;28;45437;-71
2023/03/10 10:01:49;;;;;;;;;0.00;0.00;;;;;21.18;41.84;99476.22;5034151;28;46040;-72
2023/03/10 10:04:24;;;;;;;;;2.00;0.00;;;;;21.17;41.61;99482.56;5034446;28;45426;-73
2023/03/10 10:06:52;;;;;;;;;0.00;0.00;;;;;21.09;41.34;99464.25;5016866;28;45415;-73
2023/03/10 10:09:41;;;;;;;;;0.00;0.00;;;;;21.19;41.37;99479.69;5038124;28;45465;-73
2023/03/10 10:12:18;;;;;;;;;0.00;0.00;;;;;21.19;41.42;99492.91;5037766;28;46938;-73
2023/03/10 10:14:44;;;;;;;;;2.00;0.00;;;;;21.12;41.18;99468.31;5038128;28;45326;-73
2023/03/10 10:17:19;;;;;;;;;0.00;0.00;;;;;21.21;41.20;99505.97;5037773;28;45355;-73
2023/03/10 10:19:46;;;;;;;;;0.00;0.00;;;;;21.21;41.48;99512.03;5037516;28;45443;-72
2023/03/10 10:22:29;;;;;;;;;0.00;0.00;;;;;21.20;41.52;99521.00;5037518;28;45461;-73
2023/03/10 10:25:07;;;;;;;;;0.00;0.00;;;;;21.21;41.44;99525.25;5038027;28;45371;-73
2023/03/10 10:27:32;;;;;;;;;1.00;0.00;;;;;21.22;40.88;99532.19;5038249;28;45292;-73
2023/03/10 10:29:58;;;;;;;;;0.00;0.00;;;;;21.22;41.18;99532.19;5036248;28;45240;-73
2023/03/10 10:32:24;;;;;;;;;0.00;0.00;;;;;21.17;41.48;99540.75;5037696;28;46112;-73
2023/03/10 10:34:49;;;;;;;;;0.00;0.00;;;;;21.23;41.55;99538.28;5037678;28;45334;-73
2023/03/10 10:37:35;;;;;;;;;0.00;0.00;;;;;21.22;41.11;99542.78;5037824;28;45315;-73
2023/03/10 10:40:00;;;;;;;;;0.00;0.00;;;;;21.20;41.13;99554.56;5037468;28;45499;-72
2023/03/10 10:42:31;;;;;;;;;0.00;0.00;;;;;21.22;41.29;99558.63;5037420;28;46193;-72
2023/03/10 10:44:58;;;;;;;;;1.67;0.00;;;;;21.22;41.28;99573.69;5037055;28;45533;-72
2023/03/10 10:47:31;;;;;;;;;0.00;0.00;;;;;21.21;40.97;99587.94;5037581;28;45323;-72
2023/03/10 10:50:22;;;;;;;;;1.00;0.00;;;;;21.21;41.26;99586.09;5037442;28;45299;-72
2023/03/10 10:52:51;;;;;;;;;0.00;0.00;;;;;21.21;40.90;99603.81;5037600;28;46281;-72
2023/03/10 10:55:26;;;;;;;;;0.00;0.00;;;;;21.20;41.13;99604.81;5037581;28;45360;-72
2023/03/10 10:57:58;;;;;;;;;0.00;0.00;;;;;21.19;41.10;99606.66;5037538;28;45339;-72
2023/03/10 11:00:28;;;;;;;;;0.00;0.00;;;;;21.20;41.11;99615.41;5036875;28;45556;-72
2023/03/10 11:02:54;;;;;;;;;0.00;0.00;;;;;21.18;41.34;99627.00;5037171;28;48355;-72
2023/03/10 11:05:30;;;;;;;;;0.67;0.00;;;;;21.18;40.99;99629.63;5036820;28;45399;-73
2023/03/10 11:07:55;;;;;;;;;0.00;0.00;;;;;21.17;41.21;99614.81;5037416;28;45290;-73
2023/03/10 11:10:27;;;;;;;;;1.33;0.00;;;;;21.20;41.34;99639.22;5037251;28;45377;-73
2023/03/10 11:13:13;;;;;;;;;0.00;0.00;;;;;21.18;41.28;99650.00;5037349;28;46264;-73
2023/03/10 11:16:04;;;;;;;;;0.67;0.00;;;;;21.18;41.07;99665.88;5036831;28;45322;-73
2023/03/10 11:18:46;;;;;;;;;0.00;0.00;;;;;21.18;41.05;99642.88;5023112;28;45403;-73
2023/03/10 11:21:17;;;;;;;;;0.00;0.00;;;;;21.17;41.20;99680.94;5037051;28;45368;-72
2023/03/10 11:24:04;;;;;;;;;0.00;0.00;;;;;21.19;41.30;99691.31;5036647;28;46939;-72
2023/03/10 11:27:17;;;;;;;;;0.00;0.00;;;;;21.19;40.92;99720.41;5036894;28;45399;-72
2023/03/10 11:30:14;;;;;;;;;0.00;0.00;;;;;21.17;41.21;99720.59;4936196;28;45394;-73
2023/03/10 11:32:40;;;;;;;;;0.00;0.00;;;;;21.20;41.09;99767.00;4878188;29;45464;-73
2023/03/10 11:35:17;;;;;;;;;1.00;0.00;;;;;21.20;40.82;99752.97;4879310;29;45508;-75
2023/03/10 11:38:08;;;;;;;;;0.00;0.00;;;;;21.18;41.02;99759.25;4863081;29;45526;-74